Time;durP1;ratioP1;P1;durP2;ratioP2;P2;SDS_P1;SDS_P2;PMS_P1;PMS_P2;Temp;Humidity;BMP_temperature;BMP_pressure;BME280_temperature;BME280_humidity;BME280_pressure;Samples;Min_cycle;Max_cycle;Signal;HPM_P1;HPM_P2
2022/02/01 00:00:56;;;;;;;5.95;3.42;;;;;;;0.35;88.82;96456.34;5009631;28;20069;-59
2022/02/01 00:03:23;;;;;;;8.48;3.83;;;;;;;0.26;88.06;96458.38;5010141;28;20022;-59
2022/02/01 00:06:42;;;;;;;5.65;3.35;;;;;;;0.40;88.09;96457.00;5007256;28;20509;-59
2022/02/01 00:08:46;;;;;;;4.95;3.60;;;;;;;0.31;87.32;96449.56;5002977;28;20487;-59
2022/02/01 00:36:00;;;;;;;7.93;3.65;;;;;;;0.32;85.51;96427.94;4951901;28;20039;-59
2022/02/01 00:38:33;;;;;;;5.63;3.47;;;;;;;0.22;85.91;96432.63;4999935;28;20042;-59
2022/02/01 00:41:04;;;;;;;4.88;3.42;;;;;;;0.16;85.57;96425.13;5009816;28;20061;-59
2022/02/01 00:43:30;;;;;;;4.45;3.65;;;;;;;0.13;85.56;96423.50;5010426;28;20048;-59
2022/02/01 00:46:00;;;;;;;7.22;3.88;;;;;;;0.22;85.27;96433.50;5010781;28;20505;-59
2022/02/01 00:48:25;;;;;;;10.38;3.35;;;;;;;0.02;86.37;96425.66;5010487;28;20022;-59
2022/02/01 00:50:50;;;;;;;6.80;4.20;;;;;;;0.07;86.92;96427.16;5010218;28;20105;-59
2022/02/01 00:53:16;;;;;;;8.02;4.78;;;;;;;0.07;86.94;96423.72;5010811;28;20030;-59
2022/02/01 00:55:41;;;;;;;5.22;3.75;;;;;;;0.01;87.77;96431.72;5010410;28;20120;-59
2022/02/01 00:58:07;;;;;;;12.80;3.83;;;;;;;-0.06;88.11;96431.97;5010505;28;20088;-59
2022/02/01 01:00:32;;;;;;;7.32;3.70;;;;;;;-0.13;89.50;96424.50;5010180;28;20022;-58
2022/02/01 01:02:57;;;;;;;6.05;3.42;;;;;;;-0.16;88.82;96431.47;5016734;28;20048;-59
2022/02/01 01:05:23;;;;;;;6.38;3.10;;;;;;;-0.20;89.32;96429.06;5010573;28;20029;-59
2022/02/01 01:07:49;;;;;;;5.13;3.13;;;;;;;-0.22;89.88;96428.28;5009492;28;20103;-59
2022/02/01 01:10:14;;;;;;;6.47;3.20;;;;;;;-0.28;89.95;96431.94;5010130;28;20030;-60
2022/02/01 01:12:54;;;;;;;8.40;3.55;;;;;;;-0.24;90.00;96417.13;5010116;28;20033;-59
2022/02/01 01:15:24;;;;;;;5.35;3.78;;;;;;;-0.26;90.03;96413.78;5008270;28;20022;-59
2022/02/01 01:18:27;;;;;;;4.47;3.20;;;;;;;-0.18;89.75;96416.91;5010110;28;20026;-59
2022/02/01 01:53:49;;;;;;;8.57;3.97;;;;;;;-0.28;88.67;96413.00;5011840;28;20037;-59
2022/02/01 01:56:15;;;;;;;6.40;3.92;;;;;;;-0.27;88.91;96422.44;5013335;28;20022;-59
2022/02/01 01:58:41;;;;;;;8.93;3.15;;;;;;;-0.32;89.78;96433.81;5014202;28;20029;-59
2022/02/01 02:01:14;;;;;;;4.35;2.97;;;;;;;-0.34;90.33;96433.00;5013306;28;20049;-59
2022/02/01 02:03:42;;;;;;;6.53;3.60;;;;;;;-0.28;90.19;96416.41;5013792;28;20026;-59
2022/02/01 02:06:07;;;;;;;7.45;3.45;;;;;;;-0.32;89.49;96413.09;5012965;28;20045;-59
2022/02/01 02:08:33;;;;;;;10.10;3.85;;;;;;;-0.24;88.73;96407.63;5013119;28;20034;-59
2022/02/01 02:11:05;;;;;;;7.68;3.22;;;;;;;-0.26;88.18;96411.19;5013027;28;20033;-59
2022/02/01 02:16:19;;;;;;;7.75;3.63;;;;;;;-0.36;87.41;96421.84;5012948;28;20084;-59
2022/02/01 02:18:45;;;;;;;7.07;3.50;;;;;;;-0.32;88.10;96423.47;5012932;28;20049;-59
2022/02/01 02:21:10;;;;;;;6.57;3.53;;;;;;;-0.46;89.40;96417.94;5012611;28;21076;-59
2022/02/01 02:23:36;;;;;;;7.68;3.30;;;;;;;-0.59;89.90;96417.53;5012845;28;20587;-59
2022/02/01 02:26:05;;;;;;;5.95;3.63;;;;;;;-0.66;90.91;96409.16;5012827;28;21097;-59
2022/02/01 02:28:31;;;;;;;6.43;4.63;;;;;;;-0.75;90.69;96407.75;5012727;28;20033;-59
2022/02/01 02:30:56;;;;;;;8.25;5.15;;;;;;;-0.80;91.71;96401.03;5013132;28;20034;-59
2022/02/01 02:33:22;;;;;;;4.13;3.72;;;;;;;-0.91;92.55;96401.41;5011895;28;20033;-59
2022/02/01 02:35:58;;;;;;;5.88;5.22;;;;;;;-0.99;93.24;96400.84;5012864;28;20473;-59
2022/02/01 02:46:32;;;;;;;13.25;3.67;;;;;;;-1.26;95.89;96403.50;5012718;28;20837;-59
2022/02/01 02:48:58;;;;;;;5.72;3.50;;;;;;;-1.28;95.71;96408.69;5012444;28;20034;-59
2022/02/01 02:51:23;;;;;;;5.75;3.75;;;;;;;-1.32;95.31;96394.19;5011373;28;20460;-59
2022/02/01 02:53:49;;;;;;;6.63;3.60;;;;;;;-1.36;95.82;96392.63;5012823;28;20037;-59
2022/02/01 02:56:14;;;;;;;4.20;3.55;;;;;;;-1.41;95.57;96397.09;5012131;28;20054;-59
2022/02/01 02:58:41;;;;;;;10.70;4.45;;;;;;;-1.36;95.60;96390.03;5012585;28;20033;-59
2022/02/01 03:01:06;;;;;;;8.90;4.30;;;;;;;-1.42;96.42;96401.41;5012255;28;20052;-59
2022/02/01 03:03:32;;;;;;;5.70;3.85;;;;;;;-1.53;96.95;96394.03;5012631;28;20053;-59
2022/02/01 03:05:57;;;;;;;10.68;4.72;;;;;;;-1.67;98.25;96401.38;5012588;28;20026;-59
2022/02/01 03:08:24;;;;;;;7.13;4.60;;;;;;;-1.77;98.91;96419.75;5011294;28;20513;-59
2022/02/01 03:10:49;;;;;;;8.50;5.70;;;;;;;-1.79;99.26;96423.25;5012610;28;20448;-59
2022/02/01 03:13:21;;;;;;;12.65;5.00;;;;;;;-1.54;97.76;96419.91;5011987;28;20022;-59
2022/02/01 03:15:56;;;;;;;9.30;5.05;;;;;;;-1.67;98.08;96422.03;5009006;28;20026;-59
2022/02/01 03:21:06;;;;;;;6.15;4.50;;;;;;;-1.79;99.47;96433.59;5011876;28;20116;-59
2022/02/01 03:23:31;;;;;;;10.85;5.00;;;;;;;-1.83;100.00;96438.00;5011651;28;20483;-59
2022/02/01 03:25:56;;;;;;;7.50;4.30;;;;;;;-1.83;100.00;96440.59;5011926;28;20041;-59
2022/02/01 03:28:22;;;;;;;11.00;4.97;;;;;;;-1.86;100.00;96443.28;5011803;28;20095;-59
2022/02/01 03:30:47;;;;;;;7.30;4.72;;;;;;;-1.86;100.00;96445.88;5011478;28;20033;-59
2022/02/01 03:33:13;;;;;;;7.32;4.68;;;;;;;-1.83;100.00;96453.50;5011593;28;20030;-59
2022/02/01 03:35:38;;;;;;;8.80;5.45;;;;;;;-1.81;100.00;96450.84;5011492;28;20109;-59
2022/02/01 03:38:03;;;;;;;10.13;6.57;;;;;;;-1.76;100.00;96454.16;5011926;28;20663;-59
2022/02/01 03:40:29;;;;;;;8.85;6.00;;;;;;;-1.69;100.00;96447.91;5011402;28;20030;-59
2022/02/01 03:42:55;;;;;;;8.90;5.18;;;;;;;-1.69;100.00;96465.13;5011590;28;20033;-58
2022/02/01 03:45:20;;;;;;;11.23;5.13;;;;;;;-1.66;100.00;96473.63;5010904;28;20026;-59
2022/02/01 03:47:46;;;;;;;7.45;5.45;;;;;;;-1.64;100.00;96461.50;5011508;28;20057;-59
2022/02/01 03:50:12;;;;;;;9.95;5.32;;;;;;;-1.58;100.00;96461.31;5011199;28;20080;-59
2022/02/01 03:52:37;;;;;;;5.95;4.93;;;;;;;-1.53;100.00;96465.50;5011288;28;20073;-59
2022/02/01 03:55:03;;;;;;;12.93;4.78;;;;;;;-1.46;100.00;96474.75;5011159;28;20041;-59
2022/02/01 03:57:28;;;;;;;7.28;4.32;;;;;;;-1.45;100.00;96466.94;5011545;28;20100;-59
2022/02/01 03:59:54;;;;;;;5.05;4.10;;;;;;;-1.40;100.00;96478.88;5011275;28;20466;-59
2022/02/01 04:02:19;;;;;;;6.90;4.35;;;;;;;-1.41;100.00;96475.44;5011180;28;20034;-59
2022/02/01 04:04:49;;;;;;;8.43;5.03;;;;;;;-1.39;100.00;96480.56;5011678;28;20022;-59
2022/02/01 04:07:14;;;;;;;11.18;6.03;;;;;;;-1.42;100.00;96478.91;5010918;28;20064;-58
2022/02/01 04:09:40;;;;;;;8.02;5.70;;;;;;;-1.41;100.00;96480.59;5011213;28;20029;-59
2022/02/01 04:12:06;;;;;;;8.43;5.10;;;;;;;-1.36;100.00;96485.63;5010738;28;20108;-59
2022/02/01 04:14:34;;;;;;;10.35;5.95;;;;;;;-1.34;100.00;96478.66;5010709;28;20088;-59
2022/02/01 04:17:02;;;;;;;16.42;5.80;;;;;;;-1.34;100.00;96487.25;5010583;28;20026;-58
2022/02/01 04:19:30;;;;;;;6.82;5.38;;;;;;;-1.30;100.00;96495.75;5010675;28;20069;-59
2022/02/01 04:24:24;;;;;;;12.52;6.82;;;;;;;-1.32;100.00;96489.78;5011782;28;20030;-59
2022/02/01 04:26:49;;;;;;;9.15;5.78;;;;;;;-1.31;100.00;96491.50;5010836;28;20033;-59
2022/02/01 04:29:14;;;;;;;14.55;10.27;;;;;;;-1.05;99.01;96488.06;5010599;28;20029;-59
2022/02/01 04:31:40;;;;;;;16.67;12.93;;;;;;;-1.13;98.68;96507.28;5010656;28;20033;-59
2022/02/01 04:34:05;;;;;;;15.88;9.75;;;;;;;-1.26;99.29;96509.44;5010764;28;20473;-59
2022/02/01 04:36:31;;;;;;;17.75;12.10;;;;;;;-1.36;100.00;96517.47;5010759;28;20405;-59
2022/02/01 04:38:57;;;;;;;22.15;13.77;;;;;;;-1.36;100.00;96509.72;5010641;28;20040;-59
2022/02/01 04:41:27;;;;;;;18.90;12.57;;;;;;;-1.40;100.00;96508.13;5010549;28;20394;-59
2022/02/01 04:43:53;;;;;;;23.15;12.93;;;;;;;-1.43;100.00;96504.81;5010507;28;20489;-59
2022/02/01 04:46:20;;;;;;;23.52;13.98;;;;;;;-1.49;100.00;96498.09;5010132;28;20064;-59
2022/02/01 04:48:47;;;;;;;20.05;13.65;;;;;;;-1.53;100.00;96494.75;5010843;28;20034;-59
2022/02/01 04:51:13;;;;;;;23.60;14.02;;;;;;;-1.54;100.00;96481.91;5010538;28;20449;-59
2022/02/01 04:53:39;;;;;;;22.98;13.48;;;;;;;-1.57;100.00;96475.09;5009903;28;20053;-59
2022/02/01 04:56:05;;;;;;;20.88;12.55;;;;;;;-1.60;100.00;96478.59;5010732;28;20121;-59
2022/02/01 04:58:30;;;;;;;16.15;8.27;;;;;;;-1.62;100.00;96476.97;5010324;28;20497;-59
2022/02/01 05:00:55;;;;;;;11.43;6.43;;;;;;;-1.64;100.00;96487.34;5010292;28;20084;-58
2022/02/01 05:03:21;;;;;;;9.57;6.63;;;;;;;-1.61;100.00;96505.31;5010159;28;20397;-59
2022/02/01 05:05:46;;;;;;;12.00;5.15;;;;;;;-1.59;100.00;96482.03;5010287;28;20045;-59
2022/02/01 05:08:13;;;;;;;14.57;8.05;;;;;;;-1.59;100.00;96480.28;5009506;28;20109;-59
2022/02/01 05:10:39;;;;;;;12.60;7.28;;;;;;;-1.48;100.00;96463.63;5010713;28;20469;-59
2022/02/01 05:15:42;;;;;;;13.02;8.50;;;;;;;-1.42;99.13;96493.59;5014075;28;20034;-58
2022/02/01 05:18:14;;;;;;;13.70;8.85;;;;;;;-1.46;100.00;96479.91;5013611;28;21391;-59
2022/02/01 05:20:54;;;;;;;11.90;7.28;;;;;;;-1.46;99.92;96474.75;5013848;28;20030;-57
2022/02/01 05:23:22;;;;;;;11.02;6.10;;;;;;;-1.50;100.00;96460.25;5013760;28;20412;-59
2022/02/01 05:25:47;;;;;;;9.77;6.13;;;;;;;-1.56;100.00;96461.28;5014307;28;20083;-59
2022/02/01 05:28:13;;;;;;;6.15;5.55;;;;;;;-1.55;100.00;96460.38;5014319;28;20017;-59
2022/02/01 05:30:38;;;;;;;8.70;5.55;;;;;;;-1.53;100.00;96468.91;5013847;28;20044;-59
2022/02/01 05:33:03;;;;;;;8.63;5.95;;;;;;;-1.57;100.00;96493.16;5014423;28;20029;-59
2022/02/01 05:35:30;;;;;;;13.43;6.28;;;;;;;-1.56;100.00;96509.50;5014079;28;20034;-59
2022/02/01 05:37:55;;;;;;;9.75;7.57;;;;;;;-1.58;100.00;96519.88;5014000;28;20095;-58
2022/02/01 05:40:21;;;;;;;8.57;6.30;;;;;;;-1.54;100.00;96526.63;5013595;28;20466;-56
2022/02/01 05:43:01;;;;;;;9.40;6.40;;;;;;;-1.40;98.87;96533.13;5013978;28;20557;-59
2022/02/01 05:45:27;;;;;;;11.63;7.28;;;;;;;-1.46;99.03;96524.66;5011890;28;20030;-58
2022/02/01 05:47:53;;;;;;;17.27;9.98;;;;;;;-1.50;98.42;96520.47;5012944;28;20033;-59
2022/02/01 05:50:18;;;;;;;15.07;8.75;;;;;;;-1.23;95.99;96512.75;5013687;28;20030;-59
2022/02/01 05:52:44;;;;;;;5.07;3.92;;;;;;;-1.22;93.66;96509.25;5012516;28;20037;-58
2022/02/01 05:55:14;;;;;;;9.27;4.30;;;;;;;-1.09;92.01;96534.72;5013374;28;20080;-58
2022/02/01 05:57:39;;;;;;;6.50;3.33;;;;;;;-1.12;91.83;96527.91;5013459;28;20109;-57
2022/02/01 06:00:07;;;;;;;8.48;3.60;;;;;;;-1.10;91.64;96545.97;5013473;28;20117;-58
2022/02/01 06:02:32;;;;;;;7.45;4.55;;;;;;;-1.19;91.84;96537.63;5013207;28;20060;-59
2022/02/01 06:04:58;;;;;;;5.82;4.32;;;;;;;-1.17;91.65;96541.00;5012272;28;20405;-59
2022/02/01 06:07:23;;;;;;;9.85;4.80;;;;;;;-1.23;92.31;96540.34;5011094;28;20026;-59
2022/02/01 06:09:49;;;;;;;9.38;3.75;;;;;;;-1.24;92.55;96541.25;5013206;28;20409;-58
2022/02/01 06:12:14;;;;;;;7.47;3.67;;;;;;;-1.24;92.88;96549.81;5013158;28;20117;-59
2022/02/01 06:14:39;;;;;;;6.05;3.75;;;;;;;-1.18;91.96;96562.56;5012623;28;20029;-59
2022/02/01 06:17:06;;;;;;;6.63;3.92;;;;;;;-1.18;92.28;96572.03;5013332;28;20041;-59
2022/02/01 06:19:32;;;;;;;5.72;3.55;;;;;;;-1.21;92.95;96560.09;5012679;28;20444;-59
2022/02/01 06:21:58;;;;;;;7.05;4.38;;;;;;;-1.24;92.86;96557.56;5011750;28;20060;-59
2022/02/01 06:24:23;;;;;;;5.43;3.92;;;;;;;-1.26;92.75;96561.94;5012228;28;20537;-59
2022/02/01 06:26:49;;;;;;;10.98;7.45;;;;;;;-1.29;93.31;96562.03;5010900;28;20064;-58
2022/02/01 06:29:14;;;;;;;14.32;10.38;;;;;;;-1.36;93.65;96563.13;5012644;28;20443;-59
2022/02/01 06:31:39;;;;;;;11.15;8.88;;;;;;;-1.44;94.39;96555.63;5011868;28;20037;-57
2022/02/01 06:34:05;;;;;;;7.95;7.07;;;;;;;-1.45;94.08;96572.84;5013413;28;20088;-59
2022/02/01 06:36:30;;;;;;;8.82;6.82;;;;;;;-1.47;94.53;96582.38;5012482;28;20052;-59
2022/02/01 06:38:55;;;;;;;11.65;6.43;;;;;;;-1.49;94.50;96588.50;5012683;28;20386;-59
2022/02/01 06:41:21;;;;;;;9.85;5.80;;;;;;;-1.52;94.03;96586.84;5010938;28;20032;-58
2022/02/01 06:43:47;;;;;;;9.18;5.43;;;;;;;-1.53;94.01;96574.81;5009945;28;20494;-60
2022/02/01 06:46:13;;;;;;;9.45;5.97;;;;;;;-1.56;94.63;96581.81;5011450;28;20047;-60
2022/02/01 06:48:38;;;;;;;7.25;5.60;;;;;;;-1.51;94.54;96580.78;5011191;28;20109;-57
2022/02/01 06:51:04;;;;;;;8.68;6.45;;;;;;;-1.59;94.52;96569.84;5011236;28;20818;-50
2022/02/01 06:53:33;;;;;;;15.90;9.95;;;;;;;-1.68;95.52;96576.13;5012159;28;20025;-49
2022/02/01 06:56:06;;;;;;;10.70;7.20;;;;;;;-1.78;96.23;96578.13;5013054;28;20014;-48
2022/02/01 06:58:31;;;;;;;10.68;7.78;;;;;;;-1.83;97.21;96590.34;5012118;28;20390;-49
2022/02/01 07:00:57;;;;;;;13.73;7.82;;;;;;;-1.85;96.84;96586.94;5009703;28;20036;-50
2022/02/01 07:03:22;;;;;;;10.80;7.68;;;;;;;-1.80;96.41;96592.81;5011224;28;20025;-51
2022/02/01 07:05:48;;;;;;;12.55;8.65;;;;;;;-1.79;97.06;96599.66;5010387;28;20037;-52
2022/02/01 07:08:14;;;;;;;11.50;5.68;;;;;;;-1.77;96.10;96602.19;5009828;28;20030;-48
2022/02/01 07:10:40;;;;;;;9.68;6.05;;;;;;;-1.69;95.72;96599.41;5009441;28;20040;-48
2022/02/01 07:13:06;;;;;;;11.23;7.03;;;;;;;-1.59;94.75;96588.75;5010604;28;20026;-52
2022/02/01 07:15:31;;;;;;;14.38;7.65;;;;;;;-1.63;95.35;96599.25;5010540;28;20045;-49
2022/02/01 07:17:57;;;;;;;8.52;6.88;;;;;;;-1.66;95.52;96604.47;5010800;28;20054;-50
2022/02/01 07:20:23;;;;;;;10.38;6.93;;;;;;;-1.68;95.74;96606.25;5011115;28;20045;-51
2022/02/01 07:22:49;;;;;;;7.55;6.53;;;;;;;-1.65;95.58;96601.03;5011641;28;20496;-50
2022/02/01 07:25:23;;;;;;;10.55;6.18;;;;;;;-1.69;96.33;96604.56;5011194;28;20030;-52
2022/02/01 07:27:52;;;;;;;6.78;5.20;;;;;;;-1.70;96.15;96620.94;5007345;28;20406;-55
2022/02/01 07:30:23;;;;;;;10.88;5.60;;;;;;;-1.71;96.07;96625.28;5010490;28;20030;-53
2022/02/01 07:32:49;;;;;;;11.13;9.23;;;;;;;-1.67;96.06;96638.94;5007739;28;20018;-53
2022/02/01 07:35:15;;;;;;;25.20;17.77;;;;;;;-1.62;95.57;96643.09;5010423;28;20032;-54
2022/02/01 07:37:42;;;;;;;25.95;19.73;;;;;;;-1.66;96.49;96638.91;5008269;28;20040;-51
2022/02/01 07:40:10;;;;;;;25.67;21.08;;;;;;;-1.67;96.31;96657.88;5010547;28;20552;-54
2022/02/01 07:42:36;;;;;;;31.85;22.75;;;;;;;-1.75;97.67;96672.75;5010060;28;20022;-54
2022/02/01 07:45:04;;;;;;;30.38;21.15;;;;;;;-1.81;97.86;96678.91;5011156;28;20029;-54
2022/02/01 07:47:29;;;;;;;27.55;18.38;;;;;;;-1.84;97.89;96680.72;5009842;28;20080;-53
2022/02/01 07:49:55;;;;;;;28.75;18.83;;;;;;;-1.77;97.29;96680.50;5009206;28;20022;-55
2022/02/01 07:52:20;;;;;;;26.95;18.40;;;;;;;-1.51;97.19;96696.19;5011408;28;20064;-54
2022/02/01 07:54:46;;;;;;;25.50;18.05;;;;;;;-1.55;96.78;96695.41;5010731;28;20026;-51
2022/02/01 07:57:13;;;;;;;18.23;14.10;;;;;;;-1.50;97.21;96692.72;5010702;28;20034;-54
2022/02/01 07:59:39;;;;;;;18.05;15.02;;;;;;;-1.42;97.21;96689.91;5009758;28;20034;-52
2022/02/01 08:02:05;;;;;;;23.65;12.18;;;;;;;-1.36;97.17;96689.72;5007588;28;20022;-52
2022/02/01 08:04:34;;;;;;;21.88;14.95;;;;;;;-1.32;97.46;96681.84;5009902;28;20037;-51
2022/02/01 08:07:01;;;;;;;18.70;11.93;;;;;;;-1.11;95.53;96678.66;5008359;28;20025;-53
2022/02/01 08:09:39;;;;;;;19.15;12.68;;;;;;;-1.03;94.94;96687.03;5009325;28;20060;-53
2022/02/01 08:12:14;;;;;;;19.95;14.10;;;;;;;-0.95;94.61;96691.97;5005193;28;20387;-50
2022/02/01 08:17:22;;;;;;;32.70;22.65;;;;;;;-0.84;94.97;96684.75;5009848;28;20106;-52
2022/02/01 08:22:33;;;;;;;29.67;21.38;;;;;;;-0.82;94.92;96689.84;5008370;28;20030;-50
2022/02/01 08:24:58;;;;;;;36.40;25.95;;;;;;;-0.75;93.31;96691.38;5007472;28;20071;-50
2022/02/01 08:27:24;;;;;;;36.72;24.38;;;;;;;-0.72;93.75;96692.09;5010148;28;20478;-51
2022/02/01 08:29:49;;;;;;;38.35;25.63;;;;;;;-0.59;93.43;96687.41;5010394;28;20018;-49
2022/02/01 08:32:15;;;;;;;50.35;34.70;;;;;;;-0.53;92.55;96686.34;5007650;28;20049;-53
2022/02/01 08:34:40;;;;;;;43.58;29.83;;;;;;;-0.61;93.50;96678.00;5007050;28;20057;-53
2022/02/01 08:37:05;;;;;;;30.40;18.80;;;;;;;-0.43;91.69;96681.72;5008076;28;20030;-52
2022/02/01 08:39:31;;;;;;;23.55;14.02;;;;;;;-0.34;91.72;96681.41;5010568;28;20033;-51
2022/02/01 08:41:57;;;;;;;20.25;14.88;;;;;;;-0.40;91.77;96678.22;5009154;28;20109;-52
2022/02/01 08:44:29;;;;;;;19.65;15.63;;;;;;;-0.44;91.93;96672.28;5008447;28;20022;-53
2022/02/01 08:46:55;;;;;;;20.30;14.82;;;;;;;-0.45;92.37;96675.75;5007992;28;20026;-49
2022/02/01 08:49:21;;;;;;;17.35;14.35;;;;;;;-0.40;92.17;96686.81;5008391;28;20552;-49
2022/02/01 08:51:56;;;;;;;24.23;16.90;;;;;;;-0.34;91.79;96689.19;5008265;28;20030;-50
2022/02/01 08:54:26;;;;;;;20.75;16.50;;;;;;;-0.08;91.29;96682.31;5005685;28;20050;-51
2022/02/01 08:59:35;;;;;;;25.45;16.17;;;;;;;-0.03;90.19;96679.53;5007905;28;20075;-51
2022/02/01 09:02:00;;;;;;;25.33;15.57;;;;;;;0.09;89.90;96673.09;5008174;28;20109;-51
2022/02/01 09:04:26;;;;;;;26.08;15.23;;;;;;;0.07;89.55;96667.13;5010217;28;20033;-49
2022/02/01 09:06:52;;;;;;;24.35;13.18;;;;;;;0.08;88.54;96666.22;5008234;28;20548;-52
2022/02/01 09:09:17;;;;;;;21.40;16.25;;;;;;;0.10;89.71;96662.69;5008878;28;20033;-49
2022/02/01 09:11:43;;;;;;;21.88;14.85;;;;;;;0.03;89.64;96655.19;5008200;28;20030;-50
2022/02/01 09:14:08;;;;;;;22.17;15.90;;;;;;;0.02;90.35;96646.59;5008799;28;20022;-52
2022/02/01 09:16:34;;;;;;;28.73;17.30;;;;;;;0.02;90.60;96650.91;5007543;28;20037;-52
2022/02/01 09:18:59;;;;;;;32.15;21.95;;;;;;;0.01;90.98;96655.25;5006935;28;20064;-54
2022/02/01 09:21:24;;;;;;;31.02;22.50;;;;;;;-0.02;91.09;96661.38;5007630;28;20034;-51
2022/02/01 09:23:50;;;;;;;19.23;12.75;;;;;;;-0.06;87.20;96664.97;5008679;28;20022;-51
2022/02/01 09:26:15;;;;;;;14.20;8.73;;;;;;;0.00;88.39;96679.47;5008347;28;20041;-48
2022/02/01 09:28:41;;;;;;;17.77;10.45;;;;;;;-0.02;87.84;96682.09;5008780;28;20025;-50
2022/02/01 09:31:06;;;;;;;13.73;9.10;;;;;;;0.07;87.69;96696.47;5008395;28;20045;-51
2022/02/01 09:33:31;;;;;;;11.90;8.45;;;;;;;0.33;87.77;96709.41;5009218;28;20026;-50
2022/02/01 09:35:57;;;;;;;11.77;8.30;;;;;;;0.65;86.71;96710.84;5008767;28;20122;-52
2022/02/01 09:38:22;;;;;;;12.18;8.52;;;;;;;1.21;84.97;96711.38;5006904;28;20038;-51
2022/02/01 09:40:48;;;;;;;13.63;8.60;;;;;;;1.47;83.05;96709.50;5009214;28;20109;-49
2022/02/01 09:43:15;;;;;;;11.13;7.50;;;;;;;2.02;81.92;96715.13;5008353;28;20543;-52
2022/02/01 09:45:40;;;;;;;12.63;7.88;;;;;;;2.17;78.94;96722.28;5007646;28;20065;-53
2022/02/01 09:48:07;;;;;;;9.82;7.10;;;;;;;2.55;77.43;96718.94;5008486;28;20490;-52
2022/02/01 09:50:33;;;;;;;12.90;6.32;;;;;;;2.91;74.44;96720.84;5009469;28;20060;-53
2022/02/01 09:52:59;;;;;;;7.13;5.70;;;;;;;3.21;75.29;96729.91;5008385;28;20470;-53
2022/02/01 09:55:24;;;;;;;6.53;4.78;;;;;;;3.28;73.37;96737.34;5007736;28;20097;-52
2022/02/01 09:57:53;;;;;;;5.03;3.67;;;;;;;3.58;71.53;96734.22;5008236;28;20032;-53
2022/02/01 10:00:21;;;;;;;7.07;3.50;;;;;;;3.77;68.28;96728.13;5009479;28;20076;-53
2022/02/01 10:02:53;;;;;;;4.78;2.95;;;;;;;3.93;68.33;96733.44;5010356;28;20041;-55
2022/02/01 10:05:19;;;;;;;3.80;2.80;;;;;;;3.98;69.84;96723.63;5011916;28;20022;-53
2022/02/01 10:07:51;;;;;;;5.28;3.22;;;;;;;3.92;68.34;96713.53;5006746;28;20022;-52
2022/02/01 10:10:18;;;;;;;4.53;3.20;;;;;;;3.66;68.63;96720.84;5011509;28;20682;-53
2022/02/01 10:12:55;;;;;;;3.88;2.80;;;;;;;3.84;70.55;96703.47;5008517;28;20089;-52
2022/02/01 10:15:25;;;;;;;4.88;3.45;;;;;;;3.83;69.32;96696.56;5010767;28;20053;-54
2022/02/01 10:17:58;;;;;;;6.55;3.17;;;;;;;3.75;68.96;96684.84;5011164;28;20091;-52
2022/02/01 10:20:34;;;;;;;5.45;3.42;;;;;;;4.01;68.23;96684.38;5011892;28;20559;-53
2022/02/01 10:23:00;;;;;;;3.25;2.88;;;;;;;4.00;68.71;96676.66;5010582;28;20032;-52
2022/02/01 10:25:30;;;;;;;8.23;3.25;;;;;;;4.28;68.44;96670.88;5012064;28;20109;-52
2022/02/01 10:28:00;;;;;;;10.48;3.25;;;;;;;4.10;68.35;96664.84;5012093;28;20026;-52
2022/02/01 10:30:40;;;;;;;4.05;3.15;;;;;;;4.24;68.60;96661.53;5011011;28;20037;-53
2022/02/01 10:33:31;;;;;;;4.38;3.10;;;;;;;4.18;68.01;96654.03;5011830;28;20513;-53
2022/02/01 10:35:56;;;;;;;8.80;3.85;;;;;;;4.15;68.17;96656.78;5012039;28;20029;-55
2022/02/01 10:38:23;;;;;;;3.15;2.88;;;;;;;4.27;66.50;96650.09;5012228;28;20030;-55
2022/02/01 10:40:51;;;;;;;6.25;2.72;;;;;;;4.58;66.02;96649.34;5012165;28;20504;-51
2022/02/01 10:43:27;;;;;;;6.30;3.40;;;;;;;4.45;66.68;96653.50;5006143;28;20038;-54
2022/02/01 10:45:55;;;;;;;8.43;3.42;;;;;;;4.28;65.38;96642.19;5011532;28;20427;-53
2022/02/01 10:48:27;;;;;;;6.55;3.20;;;;;;;4.61;65.53;96637.06;5010534;28;20041;-53
2022/02/01 10:51:18;;;;;;;6.28;2.85;;;;;;;4.50;65.93;96630.63;5011264;28;21899;-53
2022/02/01 10:53:45;;;;;;;3.22;2.92;;;;;;;4.58;64.08;96636.31;5009375;28;20033;-54
2022/02/01 10:56:17;;;;;;;2.72;2.50;;;;;;;4.61;64.31;96650.09;5010517;28;20025;-52
2022/02/01 10:58:47;;;;;;;3.67;2.90;;;;;;;4.75;64.48;96657.19;5011885;28;20030;-54
2022/02/01 11:01:14;;;;;;;4.70;3.30;;;;;;;4.90;63.17;96663.34;5010401;28;20033;-53
2022/02/01 11:03:45;;;;;;;5.82;2.88;;;;;;;4.84;62.90;96660.16;5009923;28;20034;-54
2022/02/01 11:06:11;;;;;;;5.05;3.13;;;;;;;4.82;62.56;96656.78;5009322;28;20560;-53
2022/02/01 11:08:42;;;;;;;6.30;3.28;;;;;;;4.95;63.47;96658.72;5010392;28;20057;-53
2022/02/01 11:11:14;;;;;;;5.40;2.85;;;;;;;4.94;61.98;96643.97;5009352;28;20446;-53
2022/02/01 11:13:43;;;;;;;6.03;2.88;;;;;;;4.95;61.15;96640.44;5009628;28;20041;-53
2022/02/01 11:16:17;;;;;;;5.45;3.13;;;;;;;4.75;62.63;96637.16;5011128;28;20551;-50
2022/02/01 11:18:55;;;;;;;3.33;2.90;;;;;;;4.67;62.51;96637.59;5004235;28;20050;-53
2022/02/01 11:21:20;;;;;;;4.47;3.30;;;;;;;4.94;61.14;96630.94;5009225;28;20062;-54
2022/02/01 11:24:09;;;;;;;6.47;3.28;;;;;;;5.16;60.54;96626.22;5010538;28;20090;-50
2022/02/01 11:26:49;;;;;;;5.38;3.33;;;;;;;5.35;60.36;96627.78;5010909;28;20026;-53
2022/02/01 11:31:55;;;;;;;4.85;2.90;;;;;;;5.76;59.21;96631.59;5011415;28;20030;-52
2022/02/01 11:34:32;;;;;;;5.07;3.47;;;;;;;5.35;59.61;96647.84;5008543;28;20029;-51
2022/02/01 11:36:59;;;;;;;3.17;2.38;;;;;;;5.33;60.36;96673.22;5009228;28;20038;-52
2022/02/01 11:39:26;;;;;;;3.65;3.08;;;;;;;5.08;59.70;96662.34;5009104;28;20402;-53
2022/02/01 11:41:53;;;;;;;6.72;3.63;;;;;;;4.61;61.79;96663.97;5006494;28;20034;-54
2022/02/01 11:44:29;;;;;;;6.28;3.08;;;;;;;4.52;61.84;96662.69;5005491;28;20026;-53
2022/02/01 11:47:14;;;;;;;4.55;2.85;;;;;;;5.19;60.30;96666.13;5009220;28;20025;-51
2022/02/01 11:50:00;;;;;;;4.03;3.17;;;;;;;5.29;59.21;96667.31;5011510;28;20030;-54
2022/02/01 11:52:28;;;;;;;4.28;3.22;;;;;;;5.20;59.05;96675.66;5011070;28;20486;-53
2022/02/01 11:55:07;;;;;;;4.80;3.47;;;;;;;4.89;59.82;96670.34;5010766;28;20543;-54
2022/02/01 11:57:33;;;;;;;5.93;3.40;;;;;;;4.70;60.90;96675.69;5011025;28;20486;-54
2022/02/01 12:00:03;;;;;;;4.43;2.95;;;;;;;4.80;60.45;96673.44;5011089;28;20041;-52
2022/02/01 12:02:36;;;;;;;4.43;2.88;;;;;;;4.67;60.45;96681.94;5011011;28;20037;-52
2022/02/01 12:05:16;;;;;;;5.93;4.40;;;;;;;4.59;61.96;96689.28;5009587;28;20018;-53
2022/02/01 12:08:03;;;;;;;7.53;3.20;;;;;;;4.48;60.58;96687.25;5010223;28;20022;-53
2022/02/01 12:10:30;;;;;;;4.47;3.20;;;;;;;4.64;61.45;96681.25;5009700;28;20032;-51
2022/02/01 12:12:58;;;;;;;6.32;3.10;;;;;;;4.47;62.60;96682.97;5010272;28;20469;-51
2022/02/01 12:15:31;;;;;;;8.55;3.50;;;;;;;4.43;61.34;96674.47;5007846;28;20030;-51
2022/02/01 12:18:05;;;;;;;3.58;3.28;;;;;;;4.65;61.91;96662.06;5010251;28;20049;-52
2022/02/01 12:20:34;;;;;;;5.05;2.85;;;;;;;4.82;61.65;96653.31;5010369;28;20087;-52
2022/02/01 12:23:21;;;;;;;11.38;2.95;;;;;;;4.76;61.96;96638.84;5008569;28;20684;-53
2022/02/01 12:25:46;;;;;;;4.85;3.17;;;;;;;4.99;62.36;96634.97;5009183;28;20038;-52
2022/02/01 12:28:15;;;;;;;4.78;3.90;;;;;;;5.00;60.59;96622.78;5008888;28;20072;-52
2022/02/01 12:30:41;;;;;;;5.70;4.22;;;;;;;4.82;60.91;96617.66;5010113;28;20036;-52
2022/02/01 12:33:14;;;;;;;6.63;4.40;;;;;;;4.80;59.85;96610.81;5009567;28;20455;-55
2022/02/01 12:35:41;;;;;;;5.30;3.33;;;;;;;5.43;59.35;96601.25;5008870;28;20026;-53
2022/02/01 12:38:12;;;;;;;4.10;2.92;;;;;;;6.01;58.32;96590.97;5009682;28;20041;-54
2022/02/01 12:40:38;;;;;;;4.53;2.75;;;;;;;6.61;57.06;96593.50;5008832;28;20729;-52
2022/02/01 12:43:11;;;;;;;4.40;3.10;;;;;;;6.40;56.56;96580.81;5009065;28;20129;-53
2022/02/01 12:45:51;;;;;;;4.20;3.10;;;;;;;6.26;56.52;96576.44;5009527;28;20040;-54
2022/02/01 12:48:17;;;;;;;3.72;2.83;;;;;;;6.06;57.06;96570.63;5008673;28;20014;-50
2022/02/01 12:50:55;;;;;;;6.47;3.17;;;;;;;6.50;56.80;96555.75;5009594;28;20026;-51
2022/02/01 12:53:21;;;;;;;4.97;3.17;;;;;;;6.72;56.70;96555.25;5006207;28;20037;-52
2022/02/01 12:55:47;;;;;;;6.65;4.07;;;;;;;7.00;55.27;96542.19;5008739;28;20034;-52
2022/02/01 12:58:16;;;;;;;3.80;2.90;;;;;;;7.12;53.86;96536.16;5006498;28;20018;-50
2022/02/01 13:00:48;;;;;;;5.97;2.60;;;;;;;7.14;53.22;96533.44;5008539;28;20026;-54